sensor_id;sensor_type;location;lat;lon;timestamp;pressure;altitude;pressure_sealevel;temperature;humidity
59789;BME280;47353;51.614;5.530;2024-01-07T00:00:38;101613.56;;;1.22;100.00
59789;BME280;47353;51.614;5.530;2024-01-07T00:03:03;101616.69;;;1.19;100.00
59789;BME280;47353;51.614;5.530;2024-01-07T00:05:29;101614.81;;;1.20;100.00
59789;BME280;47353;51.614;5.530;2024-01-07T00:07:54;101618.81;;;1.24;100.00
59789;BME280;47353;51.614;5.530;2024-01-07T00:10:20;101619.34;;;1.13;100.00
59789;BME280;47353;51.614;5.530;2024-01-07T00:12:45;101617.94;;;1.17;100.00
59789;BME280;47353;51.614;5.530;2024-01-07T00:15:10;101614.81;;;1.20;100.00
59789;BME280;47353;51.614;5.530;2024-01-07T00:17:36;101630.31;;;1.19;100.00
59789;BME280;47353;51.614;5.530;2024-01-07T00:20:01;101628.25;;;1.21;100.00
59789;BME280;47353;51.614;5.530;2024-01-07T00:22:27;101632.97;;;1.13;100.00
59789;BME280;47353;51.614;5.530;2024-01-07T00:24:52;101633.19;;;1.11;100.00
59789;BME280;47353;51.614;5.530;2024-01-07T00:27:17;101632.56;;;1.09;100.00
59789;BME280;47353;51.614;5.530;2024-01-07T00:29:43;101636.09;;;1.10;100.00
59789;BME280;47353;51.614;5.530;2024-01-07T00:32:08;101639.56;;;1.18;100.00
59789;BME280;47353;51.614;5.530;2024-01-07T00:34:34;101643.66;;;1.08;100.00
59789;BME280;47353;51.614;5.530;2024-01-07T00:36:59;101645.72;;;1.06;100.00
59789;BME280;47353;51.614;5.530;2024-01-07T00:39:24;101644.06;;;1.05;100.00
59789;BME280;47353;51.614;5.530;2024-01-07T00:41:50;101645.66;;;0.99;100.00
59789;BME280;47353;51.614;5.530;2024-01-07T00:44:15;101653.44;;;1.02;100.00
59789;BME280;47353;51.614;5.530;2024-01-07T00:46:40;101648.91;;;1.09;100.00
59789;BME280;47353;51.614;5.530;2024-01-07T00:49:06;101655.31;;;1.02;100.00
59789;BME280;47353;51.614;5.530;2024-01-07T00:51:31;101655.16;;;1.03;100.00
59789;BME280;47353;51.614;5.530;2024-01-07T00:53:56;101657.22;;;1.01;100.00
59789;BME280;47353;51.614;5.530;2024-01-07T00:56:25;101655.16;;;1.03;100.00
59789;BME280;47353;51.614;5.530;2024-01-07T00:58:51;101659.94;;;1.01;100.00
59789;BME280;47353;51.614;5.530;2024-01-07T01:01:16;101659.75;;;1.03;100.00
59789;BME280;47353;51.614;5.530;2024-01-07T01:03:41;101664.72;;;1.20;100.00
59789;BME280;47353;51.614;5.530;2024-01-07T01:06:07;101664.53;;;1.01;100.00
59789;BME280;47353;51.614;5.530;2024-01-07T01:08:32;101664.69;;;1.14;100.00
59789;BME280;47353;51.614;5.530;2024-01-07T01:10:57;101669.59;;;1.04;100.00
59789;BME280;47353;51.614;5.530;2024-01-07T01:13:23;101672.22;;;0.91;100.00
59789;BME280;47353;51.614;5.530;2024-01-07T01:15:48;101673.50;;;0.95;100.00
59789;BME280;47353;51.614;5.530;2024-01-07T01:18:14;101667.94;;;1.03;100.00
59789;BME280;47353;51.614;5.530;2024-01-07T01:20:39;101673.63;;;0.87;100.00
59789;BME280;47353;51.614;5.530;2024-01-07T01:23:05;101674.75;;;0.92;100.00
59789;BME280;47353;51.614;5.530;2024-01-07T01:25:30;101679.72;;;0.89;100.00
59789;BME280;47353;51.614;5.530;2024-01-07T01:27:56;101678.94;;;0.95;100.00
59789;BME280;47353;51.614;5.530;2024-01-07T01:30:22;101687.91;;;1.10;100.00
59789;BME280;47353;51.614;5.530;2024-01-07T01:32:47;101684.66;;;1.00;100.00
59789;BME280;47353;51.614;5.530;2024-01-07T01:35:13;101688.28;;;0.86;100.00
59789;BME280;47353;51.614;5.530;2024-01-07T01:37:38;101686.47;;;0.93;100.00
59789;BME280;47353;51.614;5.530;2024-01-07T01:40:04;101690.81;;;0.87;100.00
59789;BME280;47353;51.614;5.530;2024-01-07T01:42:29;101695.50;;;0.93;100.00
59789;BME280;47353;51.614;5.530;2024-01-07T01:44:55;101698.81;;;0.89;100.00
59789;BME280;47353;51.614;5.530;2024-01-07T01:47:24;101708.22;;;0.86;100.00
59789;BME280;47353;51.614;5.530;2024-01-07T01:49:50;101707.38;;;0.86;100.00
59789;BME280;47353;51.614;5.530;2024-01-07T01:52:15;101705.03;;;0.83;100.00
59789;BME280;47353;51.614;5.530;2024-01-07T01:54:41;101712.16;;;0.84;100.00
59789;BME280;47353;51.614;5.530;2024-01-07T01:57:08;101714.50;;;0.87;100.00
59789;BME280;47353;51.614;5.530;2024-01-07T01:59:34;101708.84;;;0.88;100.00
59789;BME280;47353;51.614;5.530;2024-01-07T02:02:01;101723.34;;;0.89;100.00
59789;BME280;47353;51.614;5.530;2024-01-07T02:04:26;101712.25;;;1.11;100.00
59789;BME280;47353;51.614;5.530;2024-01-07T02:06:52;101727.09;;;0.88;100.00
59789;BME280;47353;51.614;5.530;2024-01-07T02:09:18;101722.03;;;0.85;100.00
59789;BME280;47353;51.614;5.530;2024-01-07T02:11:43;101720.13;;;0.85;100.00
59789;BME280;47353;51.614;5.530;2024-01-07T02:14:09;101723.06;;;0.84;100.00
59789;BME280;47353;51.614;5.530;2024-01-07T02:16:34;101723.25;;;0.82;100.00
59789;BME280;47353;51.614;5.530;2024-01-07T02:18:59;101719.88;;;0.80;100.00
59789;BME280;47353;51.614;5.530;2024-01-07T02:21:25;101726.53;;;0.92;100.00
59789;BME280;47353;51.614;5.530;2024-01-07T02:23:50;101730.66;;;0.88;100.00
59789;BME280;47353;51.614;5.530;2024-01-07T02:26:15;101729.84;;;0.73;100.00
59789;BME280;47353;51.614;5.530;2024-01-07T02:28:41;101729.16;;;0.86;100.00
59789;BME280;47353;51.614;5.530;2024-01-07T02:31:06;101729.63;;;0.89;100.00
59789;BME280;47353;51.614;5.530;2024-01-07T02:33:32;101726.16;;;0.81;100.00
59789;BME280;47353;51.614;5.530;2024-01-07T02:35:58;101736.09;;;0.88;100.00
59789;BME280;47353;51.614;5.530;2024-01-07T02:38:23;101734.94;;;0.97;100.00
59789;BME280;47353;51.614;5.530;2024-01-07T02:40:48;101730.84;;;0.87;100.00
59789;BME280;47353;51.614;5.530;2024-01-07T02:43:14;101736.75;;;0.90;100.00
59789;BME280;47353;51.614;5.530;2024-01-07T02:45:39;101744.03;;;0.83;100.00
59789;BME280;47353;51.614;5.530;2024-01-07T02:48:05;101750.13;;;0.85;100.00
59789;BME280;47353;51.614;5.530;2024-01-07T02:50:32;101753.13;;;0.90;100.00
59789;BME280;47353;51.614;5.530;2024-01-07T02:52:57;101752.84;;;0.85;100.00
59789;BME280;47353;51.614;5.530;2024-01-07T02:55:23;101749.53;;;0.90;100.00
59789;BME280;47353;51.614;5.530;2024-01-07T02:57:48;101754.34;;;0.88;100.00
59789;BME280;47353;51.614;5.530;2024-01-07T03:00:14;101754.16;;;0.89;100.00
59789;BME280;47353;51.614;5.530;2024-01-07T03:02:39;101753.59;;;0.94;100.00
59789;BME280;47353;51.614;5.530;2024-01-07T03:05:05;101755.47;;;0.93;100.00
59789;BME280;47353;51.614;5.530;2024-01-07T03:07:30;101752.53;;;0.95;100.00
59789;BME280;47353;51.614;5.530;2024-01-07T03:09:56;101758.66;;;0.97;100.00
59789;BME280;47353;51.614;5.530;2024-01-07T03:12:21;101759.41;;;0.91;100.00
59789;BME280;47353;51.614;5.530;2024-01-07T03:14:46;101759.03;;;0.94;100.00
59789;BME280;47353;51.614;5.530;2024-01-07T03:17:12;101763.72;;;1.00;100.00
59789;BME280;47353;51.614;5.530;2024-01-07T03:19:38;101765.19;;;1.02;100.00
59789;BME280;47353;51.614;5.530;2024-01-07T03:22:04;101770.00;;;1.00;100.00
59789;BME280;47353;51.614;5.530;2024-01-07T03:24:32;101775.25;;;1.02;100.00
59789;BME280;47353;51.614;5.530;2024-01-07T03:26:57;101778.38;;;0.99;100.00
59789;BME280;47353;51.614;5.530;2024-01-07T03:29:23;101770.00;;;1.00;100.00
59789;BME280;47353;51.614;5.530;2024-01-07T03:31:48;101777.16;;;1.01;100.00
59789;BME280;47353;51.614;5.530;2024-01-07T03:34:13;101776.28;;;1.01;100.00
59789;BME280;47353;51.614;5.530;2024-01-07T03:36:39;101776.28;;;1.01;100.00
59789;BME280;47353;51.614;5.530;2024-01-07T03:39:04;101778.94;;;0.94;100.00
59789;BME280;47353;51.614;5.530;2024-01-07T03:41:29;101775.09;;;1.03;100.00
59789;BME280;47353;51.614;5.530;2024-01-07T03:43:55;101783.63;;;1.00;100.00
59789;BME280;47353;51.614;5.530;2024-01-07T03:46:22;101786.53;;;0.99;100.00
59789;BME280;47353;51.614;5.530;2024-01-07T03:48:47;101788.63;;;0.97;100.00
59789;BME280;47353;51.614;5.530;2024-01-07T03:51:12;101787.59;;;0.98;100.00
59789;BME280;47353;51.614;5.530;2024-01-07T03:53:38;101793.41;;;0.95;100.00
59789;BME280;47353;51.614;5.530;2024-01-07T03:56:04;101794.72;;;0.99;100.00
59789;BME280;47353;51.614;5.530;2024-01-07T03:58:29;101797.63;;;0.97;100.00
59789;BME280;47353;51.614;5.530;2024-01-07T04:00:54;101792.94;;;0.91;100.00
59789;BME280;47353;51.614;5.530;2024-01-07T04:03:20;101799.72;;;0.95;100.00
59789;BME280;47353;51.614;5.530;2024-01-07T04:05:45;101801.97;;;0.92;100.00
59789;BME280;47353;51.614;5.530;2024-01-07T04:08:12;101803.47;;;0.94;100.00
59789;BME280;47353;51.614;5.530;2024-01-07T04:10:38;101803.41;;;0.88;100.00
59789;BME280;47353;51.614;5.530;2024-01-07T04:13:04;101809.97;;;0.93;100.00
59789;BME280;47353;51.614;5.530;2024-01-07T04:15:30;101807.44;;;0.92;100.00
59789;BME280;47353;51.614;5.530;2024-01-07T04:17:55;101811.50;;;0.81;100.00
59789;BME280;47353;51.614;5.530;2024-01-07T04:20:21;101818.88;;;1.02;100.00
59789;BME280;47353;51.614;5.530;2024-01-07T04:22:47;101826.88;;;0.89;100.00
59789;BME280;47353;51.614;5.530;2024-01-07T04:25:12;101821.81;;;0.86;100.00
59789;BME280;47353;51.614;5.530;2024-01-07T04:27:38;101820.78;;;0.87;100.00
59789;BME280;47353;51.614;5.530;2024-01-07T04:30:04;101824.06;;;0.82;100.00
59789;BME280;47353;51.614;5.530;2024-01-07T04:32:30;101819.28;;;0.84;100.00
59789;BME280;47353;51.614;5.530;2024-01-07T04:34:55;101831.38;;;0.82;100.00
59789;BME280;47353;51.614;5.530;2024-01-07T04:37:23;101843.81;;;0.84;100.00
59789;BME280;47353;51.614;5.530;2024-01-07T04:39:48;101841.94;;;0.85;100.00
59789;BME280;47353;51.614;5.530;2024-01-07T04:42:14;101834.97;;;0.82;100.00
59789;BME280;47353;51.614;5.530;2024-01-07T04:44:40;101841.00;;;0.92;100.00
59789;BME280;47353;51.614;5.530;2024-01-07T04:47:23;101854.16;;;0.89;100.00
59789;BME280;47353;51.614;5.530;2024-01-07T04:49:48;101857.72;;;0.89;100.00
59789;BME280;47353;51.614;5.530;2024-01-07T04:52:14;101864.94;;;0.82;100.00
59789;BME280;47353;51.614;5.530;2024-01-07T04:54:39;101861.22;;;0.83;100.00
59789;BME280;47353;51.614;5.530;2024-01-07T04:57:04;101867.66;;;0.82;100.00
59789;BME280;47353;51.614;5.530;2024-01-07T04:59:30;101851.88;;;0.92;100.00
59789;BME280;47353;51.614;5.530;2024-01-07T05:01:55;101863.47;;;0.80;100.00
59789;BME280;47353;51.614;5.530;2024-01-07T05:04:21;101866.19;;;0.80;100.00
59789;BME280;47353;51.614;5.530;2024-01-07T05:06:46;101874.44;;;0.72;100.00
59789;BME280;47353;51.614;5.530;2024-01-07T05:09:12;101867.38;;;0.92;100.00
59789;BME280;47353;51.614;5.530;2024-01-07T05:11:39;101870.97;;;0.78;100.00
59789;BME280;47353;51.614;5.530;2024-01-07T05:14:05;101873.59;;;0.71;100.00
59789;BME280;47353;51.614;5.530;2024-01-07T05:16:30;101877.16;;;0.72;100.00
59789;BME280;47353;51.614;5.530;2024-01-07T05:18:56;101880.84;;;0.64;100.00
59789;BME280;47353;51.614;5.530;2024-01-07T05:21:21;101878.41;;;0.69;100.00
59789;BME280;47353;51.614;5.530;2024-01-07T05:23:46;101881.59;;;0.58;100.00
59789;BME280;47353;51.614;5.530;2024-01-07T05:26:12;101884.31;;;0.58;100.00
59789;BME280;47353;51.614;5.530;2024-01-07T05:28:37;101896.41;;;0.56;100.00
59789;BME280;47353;51.614;5.530;2024-01-07T05:31:03;101891.63;;;0.58;100.00
59789;BME280;47353;51.614;5.530;2024-01-07T05:33:28;101895.59;;;0.55;100.00
59789;BME280;47353;51.614;5.530;2024-01-07T05:35:54;101895.84;;;0.60;100.00
59789;BME280;47353;51.614;5.530;2024-01-07T05:38:19;101900.66;;;0.58;100.00
59789;BME280;47353;51.614;5.530;2024-01-07T05:40:44;101904.69;;;0.62;100.00
59789;BME280;47353;51.614;5.530;2024-01-07T05:43:10;101904.88;;;0.61;100.00
59789;BME280;47353;51.614;5.530;2024-01-07T05:45:35;101907.78;;;0.59;100.00
59789;BME280;47353;51.614;5.530;2024-01-07T05:48:01;101910.50;;;0.59;100.00
59789;BME280;47353;51.614;5.530;2024-01-07T05:50:26;101922.38;;;0.66;100.00
59789;BME280;47353;51.614;5.530;2024-01-07T05:52:51;101923.66;;;0.56;100.00
59789;BME280;47353;51.614;5.530;2024-01-07T05:55:17;101919.06;;;0.56;100.00
59789;BME280;47353;51.614;5.530;2024-01-07T05:57:43;101920.53;;;0.59;100.00
59789;BME280;47353;51.614;5.530;2024-01-07T06:00:08;101924.69;;;0.55;100.00
59789;BME280;47353;51.614;5.530;2024-01-07T06:02:36;101933.97;;;0.60;100.00
59789;BME280;47353;51.614;5.530;2024-01-07T06:05:02;101933.63;;;0.63;100.00
59789;BME280;47353;51.614;5.530;2024-01-07T06:07:28;101938.00;;;0.50;100.00
59789;BME280;47353;51.614;5.530;2024-01-07T06:09:53;101935.28;;;0.50;100.00
59789;BME280;47353;51.614;5.530;2024-01-07T06:12:19;101936.44;;;0.55;100.00
59789;BME280;47353;51.614;5.530;2024-01-07T06:14:44;101940.47;;;0.45;100.00
59789;BME280;47353;51.614;5.530;2024-01-07T06:17:10;101942.81;;;0.48;100.00
59789;BME280;47353;51.614;5.530;2024-01-07T06:19:35;101947.88;;;0.51;100.00
59789;BME280;47353;51.614;5.530;2024-01-07T06:22:01;101957.75;;;0.52;100.00
59789;BME280;47353;51.614;5.530;2024-01-07T06:24:26;101960.75;;;0.57;100.00
59789;BME280;47353;51.614;5.530;2024-01-07T06:26:51;101963.88;;;0.54;100.00
59789;BME280;47353;51.614;5.530;2024-01-07T06:29:17;101959.78;;;0.50;100.00
59789;BME280;47353;51.614;5.530;2024-01-07T06:31:44;101977.28;;;0.55;100.00
59789;BME280;47353;51.614;5.530;2024-01-07T06:34:13;101980.03;;;0.55;100.00
59789;BME280;47353;51.614;5.530;2024-01-07T06:36:40;101979.84;;;0.57;100.00
59789;BME280;47353;51.614;5.530;2024-01-07T06:39:07;101987.53;;;0.53;100.00
59789;BME280;47353;51.614;5.530;2024-01-07T06:41:33;101990.91;;;0.55;100.00
59789;BME280;47353;51.614;5.530;2024-01-07T06:43:58;101984.59;;;0.55;100.00
59789;BME280;47353;51.614;5.530;2024-01-07T06:46:24;101999.91;;;0.56;100.00
59789;BME280;47353;51.614;5.530;2024-01-07T06:48:49;102002.56;;;0.64;100.00
59789;BME280;47353;51.614;5.530;2024-01-07T06:51:15;102005.34;;;0.56;100.00
59789;BME280;47353;51.614;5.530;2024-01-07T06:53:40;102008.75;;;0.58;100.00
59789;BME280;47353;51.614;5.530;2024-01-07T06:56:06;102009.88;;;0.49;100.00
59789;BME280;47353;51.614;5.530;2024-01-07T06:58:31;102010.34;;;0.52;100.00
59789;BME280;47353;51.614;5.530;2024-01-07T07:00:57;102016.81;;;0.51;100.00
59789;BME280;47353;51.614;5.530;2024-01-07T07:03:23;102019.47;;;0.59;100.00
59789;BME280;47353;51.614;5.530;2024-01-07T07:05:48;102019.72;;;0.50;100.00
59789;BME280;47353;51.614;5.530;2024-01-07T07:08:14;102022.44;;;0.50;100.00
59789;BME280;47353;51.614;5.530;2024-01-07T07:10:39;102028.88;;;0.71;100.00
59789;BME280;47353;51.614;5.530;2024-01-07T07:13:04;102028.88;;;0.57;100.00
59789;BME280;47353;51.614;5.530;2024-01-07T07:15:30;102032.03;;;0.60;100.00
59789;BME280;47353;51.614;5.530;2024-01-07T07:17:56;102038.22;;;0.54;100.00
59789;BME280;47353;51.614;5.530;2024-01-07T07:20:21;102042.34;;;0.50;100.00
59789;BME280;47353;51.614;5.530;2024-01-07T07:22:46;102042.22;;;0.44;100.00
59789;BME280;47353;51.614;5.530;2024-01-07T07:25:12;102050.53;;;0.50;100.00
59789;BME280;47353;51.614;5.530;2024-01-07T07:27:37;102054.84;;;0.45;100.00
59789;BME280;47353;51.614;5.530;2024-01-07T07:30:04;102060.34;;;0.37;100.00
59789;BME280;47353;51.614;5.530;2024-01-07T07:32:30;102061.13;;;0.45;100.00
59789;BME280;47353;51.614;5.530;2024-01-07T07:34:55;102063.06;;;0.37;100.00
59789;BME280;47353;51.614;5.530;2024-01-07T07:37:20;102076.31;;;0.40;100.00
59789;BME280;47353;51.614;5.530;2024-01-07T07:39:46;102080.22;;;0.37;100.00
59789;BME280;47353;51.614;5.530;2024-01-07T07:42:11;102080.41;;;0.36;100.00
59789;BME280;47353;51.614;5.530;2024-01-07T07:44:37;102087.84;;;0.19;100.00
59789;BME280;47353;51.614;5.530;2024-01-07T07:47:04;102087.34;;;0.16;100.00
59789;BME280;47353;51.614;5.530;2024-01-07T07:49:29;102096.88;;;0.20;100.00
59789;BME280;47353;51.614;5.530;2024-01-07T07:51:55;102094.50;;;0.17;100.00
59789;BME280;47353;51.614;5.530;2024-01-07T07:54:20;102103.50;;;0.17;100.00
59789;BME280;47353;51.614;5.530;2024-01-07T07:56:46;102098.91;;;0.18;100.00
59789;BME280;47353;51.614;5.530;2024-01-07T07:59:11;102111.50;;;0.19;100.00
59789;BME280;47353;51.614;5.530;2024-01-07T08:01:37;102118.09;;;0.24;100.00
59789;BME280;47353;51.614;5.530;2024-01-07T08:04:02;102117.63;;;0.21;100.00
59789;BME280;47353;51.614;5.530;2024-01-07T08:06:30;102120.38;;;0.13;100.00
59789;BME280;47353;51.614;5.530;2024-01-07T08:08:55;102116.53;;;0.30;100.00
59789;BME280;47353;51.614;5.530;2024-01-07T08:11:21;102120.50;;;0.19;100.00
59789;BME280;47353;51.614;5.530;2024-01-07T08:13:46;102124.91;;;0.20;100.00
59789;BME280;47353;51.614;5.530;2024-01-07T08:16:13;102126.25;;;0.32;100.00
59789;BME280;47353;51.614;5.530;2024-01-07T08:18:38;102126.34;;;0.39;100.00
59789;BME280;47353;51.614;5.530;2024-01-07T08:21:04;102132.41;;;0.26;100.00
59789;BME280;47353;51.614;5.530;2024-01-07T08:23:29;102140.94;;;0.23;100.00
59789;BME280;47353;51.614;5.530;2024-01-07T08:25:56;102140.06;;;0.23;100.00
59789;BME280;47353;51.614;5.530;2024-01-07T08:28:21;102140.28;;;0.13;100.00
59789;BME280;47353;51.614;5.530;2024-01-07T08:30:47;102147.31;;;0.08;100.00
59789;BME280;47353;51.614;5.530;2024-01-07T08:33:12;102147.31;;;0.08;100.00
59789;BME280;47353;51.614;5.530;2024-01-07T08:35:38;102145.22;;;0.10;100.00
59789;BME280;47353;51.614;5.530;2024-01-07T08:38:03;102163.09;;;0.12;100.00
59789;BME280;47353;51.614;5.530;2024-01-07T08:40:30;102158.63;;;0.19;100.00
59789;BME280;47353;51.614;5.530;2024-01-07T08:42:55;102163.38;;;0.17;100.00
59789;BME280;47353;51.614;5.530;2024-01-07T08:45:21;102164.75;;;0.21;100.00
59789;BME280;47353;51.614;5.530;2024-01-07T08:47:46;102165.28;;;0.17;100.00
59789;BME280;47353;51.614;5.530;2024-01-07T08:50:12;102169.53;;;0.11;100.00
59789;BME280;47353;51.614;5.530;2024-01-07T08:52:38;102172.94;;;0.13;100.00
59789;BME280;47353;51.614;5.530;2024-01-07T08:55:03;102180.59;;;0.18;100.00
59789;BME280;47353;51.614;5.530;2024-01-07T08:57:31;102188.03;;;0.24;100.00
59789;BME280;47353;51.614;5.530;2024-01-07T08:59:56;102187.25;;;0.15;100.00
59789;BME280;47353;51.614;5.530;2024-01-07T09:02:22;102179.16;;;0.30;100.00
59789;BME280;47353;51.614;5.530;2024-01-07T09:04:47;102193.34;;;0.17;100.00
59789;BME280;47353;51.614;5.530;2024-01-07T09:07:13;102193.31;;;0.25;100.00
59789;BME280;47353;51.614;5.530;2024-01-07T09:09:41;102204.69;;;0.29;100.00
59789;BME280;47353;51.614;5.530;2024-01-07T09:12:07;102204.19;;;0.25;100.00
59789;BME280;47353;51.614;5.530;2024-01-07T09:14:33;102207.63;;;0.19;100.00
59789;BME280;47353;51.614;5.530;2024-01-07T09:16:59;102217.47;;;0.28;100.00
59789;BME280;47353;51.614;5.530;2024-01-07T09:19:24;102213.94;;;0.20;100.00
59789;BME280;47353;51.614;5.530;2024-01-07T09:21:49;102222.09;;;0.20;100.00
59789;BME280;47353;51.614;5.530;2024-01-07T09:24:15;102224.28;;;0.24;100.00
59789;BME280;47353;51.614;5.530;2024-01-07T09:26:40;102225.00;;;0.18;100.00
59789;BME280;47353;51.614;5.530;2024-01-07T09:29:06;102227.81;;;0.33;100.00
59789;BME280;47353;51.614;5.530;2024-01-07T09:31:31;102233.09;;;0.34;100.00
59789;BME280;47353;51.614;5.530;2024-01-07T09:33:56;102233.69;;;0.14;100.00
59789;BME280;47353;51.614;5.530;2024-01-07T09:36:22;102243.94;;;0.42;100.00
59789;BME280;47353;51.614;5.530;2024-01-07T09:38:47;102240.63;;;0.24;100.00
59789;BME280;47353;51.614;5.530;2024-01-07T09:41:13;102242.50;;;0.16;100.00
59789;BME280;47353;51.614;5.530;2024-01-07T09:43:38;102246.63;;;0.12;100.00
59789;BME280;47353;51.614;5.530;2024-01-07T09:46:03;102254.63;;;0.13;100.00
59789;BME280;47353;51.614;5.530;2024-01-07T09:48:29;102255.59;;;0.20;100.00
59789;BME280;47353;51.614;5.530;2024-01-07T09:50:57;102259.50;;;0.26;100.00
59789;BME280;47353;51.614;5.530;2024-01-07T09:53:25;102267.00;;;0.16;100.00
59789;BME280;47353;51.614;5.530;2024-01-07T09:56:01;102266.84;;;0.17;100.00
59789;BME280;47353;51.614;5.530;2024-01-07T09:58:30;102274.50;;;0.22;100.00
59789;BME280;47353;51.614;5.530;2024-01-07T10:00:59;102274.19;;;0.17;100.00
59789;BME280;47353;51.614;5.530;2024-01-07T10:03:25;102278.28;;;0.05;100.00
59789;BME280;47353;51.614;5.530;2024-01-07T10:05:50;102278.13;;;0.06;100.00
59789;BME280;47353;51.614;5.530;2024-01-07T10:08:17;102286.13;;;0.08;100.00
59789;BME280;47353;51.614;5.530;2024-01-07T10:10:42;102288.50;;;0.11;100.00
59789;BME280;47353;51.614;5.530;2024-01-07T10:13:08;102286.91;;;0.32;100.00
59789;BME280;47353;51.614;5.530;2024-01-07T10:15:34;102287.09;;;0.15;100.00
59789;BME280;47353;51.614;5.530;2024-01-07T10:18:04;102294.09;;;0.09;100.00
59789;BME280;47353;51.614;5.530;2024-01-07T10:20:34;102297.81;;;0.16;100.00
59789;BME280;47353;51.614;5.530;2024-01-07T10:23:03;102294.09;;;0.09;100.00
59789;BME280;47353;51.614;5.530;2024-01-07T10:25:32;102299.91;;;0.06;100.00
59789;BME280;47353;51.614;5.530;2024-01-07T10:28:00;102296.31;;;0.06;100.00
59789;BME280;47353;51.614;5.530;2024-01-07T10:30:27;102304.28;;;0.15;100.00
59789;BME280;47353;51.614;5.530;2024-01-07T10:32:59;102292.38;;;0.08;100.00
59789;BME280;47353;51.614;5.530;2024-01-07T10:35:34;102288.69;;;0.01;100.00
59789;BME280;47353;51.614;5.530;2024-01-07T10:38:01;102308.41;;;0.03;100.00
59789;BME280;47353;51.614;5.530;2024-01-07T10:40:29;102303.16;;;0.02;100.00
59789;BME280;47353;51.614;5.530;2024-01-07T10:42:55;102299.03;;;0.06;100.00
59789;BME280;47353;51.614;5.530;2024-01-07T10:45:22;102300.38;;;0.10;100.00
59789;BME280;47353;51.614;5.530;2024-01-07T10:47:54;102302.56;;;0.14;100.00
59789;BME280;47353;51.614;5.530;2024-01-07T10:50:21;102302.03;;;0.35;100.00
59789;BME280;47353;51.614;5.530;2024-01-07T10:52:50;102300.63;;;0.39;100.00
59789;BME280;47353;51.614;5.530;2024-01-07T10:55:18;102304.69;;;0.51;100.00
59789;BME280;47353;51.614;5.530;2024-01-07T10:57:47;102306.88;;;0.63;100.00
59789;BME280;47353;51.614;5.530;2024-01-07T11:00:18;102308.41;;;0.58;100.00
59789;BME280;47353;51.614;5.530;2024-01-07T11:05:40;102309.09;;;0.60;100.00
59789;BME280;47353;51.614;5.530;2024-01-07T11:08:45;102307.53;;;0.57;100.00
59789;BME280;47353;51.614;5.530;2024-01-07T11:11:18;102315.88;;;0.64;100.00
59789;BME280;47353;51.614;5.530;2024-01-07T11:13:48;102313.13;;;0.72;100.00
59789;BME280;47353;51.614;5.530;2024-01-07T11:19:05;102320.38;;;0.87;100.00
59789;BME280;47353;51.614;5.530;2024-01-07T11:21:30;102326.53;;;0.81;100.00
59789;BME280;47353;51.614;5.530;2024-01-07T11:23:56;102330.59;;;0.85;100.00
59789;BME280;47353;51.614;5.530;2024-01-07T11:26:21;102329.78;;;0.77;100.00
59789;BME280;47353;51.614;5.530;2024-01-07T11:28:53;102332.97;;;0.88;100.00
59789;BME280;47353;51.614;5.530;2024-01-07T11:31:42;102331.97;;;0.81;100.00
59789;BME280;47353;51.614;5.530;2024-01-07T11:34:10;102334.56;;;0.75;100.00
59789;BME280;47353;51.614;5.530;2024-01-07T11:36:36;102341.06;;;0.66;100.00
59789;BME280;47353;51.614;5.530;2024-01-07T11:39:03;102326.03;;;0.78;100.00
59789;BME280;47353;51.614;5.530;2024-01-07T11:41:32;102333.41;;;0.69;100.00
59789;BME280;47353;51.614;5.530;2024-01-07T11:43:59;102328.56;;;0.79;100.00
59789;BME280;47353;51.614;5.530;2024-01-07T11:46:28;102329.50;;;0.64;100.00
59789;BME280;47353;51.614;5.530;2024-01-07T11:48:55;102334.22;;;0.70;100.00
59789;BME280;47353;51.614;5.530;2024-01-07T11:51:31;102334.72;;;0.81;100.00
59789;BME280;47353;51.614;5.530;2024-01-07T11:54:00;102323.81;;;0.81;100.00
59789;BME280;47353;51.614;5.530;2024-01-07T11:56:26;102331.31;;;0.79;100.00
59789;BME280;47353;51.614;5.530;2024-01-07T11:58:52;102325.78;;;0.95;100.00
59789;BME280;47353;51.614;5.530;2024-01-07T12:01:18;102327.97;;;1.00;100.00
59789;BME280;47353;51.614;5.530;2024-01-07T12:03:44;102334.63;;;0.97;100.00
59789;BME280;47353;51.614;5.530;2024-01-07T12:06:10;102325.25;;;1.00;100.00
59789;BME280;47353;51.614;5.530;2024-01-07T12:08:40;102332.88;;;1.04;99.34
59789;BME280;47353;51.614;5.530;2024-01-07T12:11:05;102336.13;;;1.08;97.67
59789;BME280;47353;51.614;5.530;2024-01-07T12:13:31;102337.84;;;1.01;98.94
59789;BME280;47353;51.614;5.530;2024-01-07T12:15:56;102339.72;;;1.00;98.04
59789;BME280;47353;51.614;5.530;2024-01-07T12:18:22;102334.34;;;0.84;97.13
59789;BME280;47353;51.614;5.530;2024-01-07T12:20:57;102337.88;;;0.93;97.39
59789;BME280;47353;51.614;5.530;2024-01-07T12:23:24;102346.44;;;0.82;97.94
59789;BME280;47353;51.614;5.530;2024-01-07T12:25:49;102347.03;;;0.69;97.69
59789;BME280;47353;51.614;5.530;2024-01-07T12:28:17;102343.44;;;0.69;97.58
59789;BME280;47353;51.614;5.530;2024-01-07T12:30:44;102342.13;;;0.65;95.67
59789;BME280;47353;51.614;5.530;2024-01-07T12:33:09;102337.78;;;0.32;94.35
59789;BME280;47353;51.614;5.530;2024-01-07T12:35:35;102363.13;;;0.32;95.63
59789;BME280;47353;51.614;5.530;2024-01-07T12:38:02;102352.38;;;0.39;96.36
59789;BME280;47353;51.614;5.530;2024-01-07T12:40:28;102362.53;;;0.61;96.05
59789;BME280;47353;51.614;5.530;2024-01-07T12:42:53;102357.84;;;0.85;94.17
59789;BME280;47353;51.614;5.530;2024-01-07T12:45:18;102354.94;;;0.87;94.43
59789;BME280;47353;51.614;5.530;2024-01-07T12:47:44;102365.06;;;1.09;94.07
59789;BME280;47353;51.614;5.530;2024-01-07T12:50:11;102353.38;;;1.31;92.62